createdAt,value
2023-03-21T00:00:22.744Z,99812.16
2023-03-21T00:00:56.019Z,99814.81
2023-03-21T00:01:31.233Z,99812.97
2023-03-21T00:02:06.032Z,99811.34
2023-03-21T00:02:38.172Z,99813.19
2023-03-21T00:03:13.644Z,99816.41
2023-03-21T00:03:46.948Z,99814.81
2023-03-21T00:04:19.092Z,99809.47
2023-03-21T00:04:56.673Z,99810.28
2023-03-21T00:05:30.919Z,99809.47
2023-03-21T00:06:06.969Z,99808.41
2023-03-21T00:06:41.752Z,99810.50
2023-03-21T00:07:13.833Z,99813.19
2023-03-21T00:07:45.921Z,99805.41
2023-03-21T00:08:21.409Z,99810.75
2023-03-21T00:08:53.645Z,99807.25
2023-03-21T00:09:26.169Z,99810.19
2023-03-21T00:10:12.398Z,99807.53
2023-03-21T00:10:47.901Z,99811.75
2023-03-21T00:11:20.033Z,99806.38
2023-03-21T00:11:54.736Z,99803.94
2023-03-21T00:12:26.937Z,99800.22
2023-03-21T00:12:59.063Z,99799.16
2023-03-21T00:13:32.803Z,99806.13
2023-03-21T00:14:09.155Z,99804.28
2023-03-21T00:14:41.766Z,99802.41
2023-03-21T00:15:14.060Z,99800.56
2023-03-21T00:16:19.298Z,99811.00
2023-03-21T00:16:50.531Z,99804.44
2023-03-21T00:17:32.609Z,99803.63
2023-03-21T00:18:11.438Z,99804.19
2023-03-21T00:18:46.656Z,99801.28
2023-03-21T00:19:22.122Z,99794.06
2023-03-21T00:19:54.506Z,99803.47
2023-03-21T00:20:26.862Z,99803.47
2023-03-21T00:21:35.315Z,99800.56
2023-03-21T00:22:06.922Z,99800.22
2023-03-21T00:22:42.470Z,99797.78
2023-03-21T00:23:14.578Z,99802.31
2023-03-21T00:23:47.771Z,99800.22
2023-03-21T00:24:23.029Z,99804.75
2023-03-21T00:24:55.603Z,99800.22
2023-03-21T00:25:28.873Z,99805.56
2023-03-21T00:26:01.534Z,99799.16
2023-03-21T00:26:38.365Z,99798.13
2023-03-21T00:27:39.371Z,99794.63
2023-03-21T00:28:08.544Z,99791.63
2023-03-21T00:28:42.629Z,99791.63
2023-03-21T00:29:20.614Z,99793.03
2023-03-21T00:29:52.694Z,99793.81
2023-03-21T00:30:27.681Z,99792.78
2023-03-21T00:31:18.095Z,99787.41
2023-03-21T00:31:52.821Z,99800.22
2023-03-21T00:32:28.552Z,99797.06
2023-03-21T00:33:05.981Z,99789.63
2023-03-21T00:33:47.533Z,99792.31
2023-03-21T00:34:26.813Z,99795.53
2023-03-21T00:35:45.391Z,99788.81
2023-03-21T00:36:05.894Z,99801.38
2023-03-21T00:36:39.077Z,99801.09
2023-03-21T00:37:14.925Z,99797.16
2023-03-21T00:37:50.664Z,99789.94
2023-03-21T00:38:24.042Z,99797.16
2023-03-21T00:38:56.416Z,99792.63
2023-03-21T00:39:32.209Z,99791.56
2023-03-21T00:40:16.206Z,99790.75
2023-03-21T00:40:56.879Z,99796.56
2023-03-21T00:41:43.131Z,99798.44
2023-03-21T00:42:15.604Z,99794.16
2023-03-21T00:42:47.988Z,99791.81
2023-03-21T00:43:23.468Z,99788.91
2023-03-21T00:43:55.921Z,99790.50
2023-03-21T00:44:28.286Z,99790.50
2023-03-21T00:45:03.025Z,99789.22
2023-03-21T00:45:35.704Z,99782.25
2023-03-21T00:46:08.052Z,99788.41
2023-03-21T00:46:51.644Z,99785.50
2023-03-21T00:47:35.375Z,99785.97
2023-03-21T00:48:10.688Z,99791.09
2023-03-21T00:48:42.914Z,99781.19
2023-03-21T00:49:15.501Z,99787.09
2023-03-21T00:49:50.156Z,99790.34
2023-03-21T00:50:24.027Z,99785.00
2023-03-21T00:50:59.477Z,99782.34
2023-03-21T00:51:34.240Z,99787.41
2023-03-21T00:52:17.182Z,99787.19
2023-03-21T00:52:56.681Z,99773.50
2023-03-21T00:53:32.834Z,99782.34
2023-03-21T00:54:05.847Z,99778.34
2023-03-21T00:54:38.272Z,99784.50
2023-03-21T00:55:16.302Z,99779.97
2023-03-21T00:55:48.957Z,99777.53
2023-03-21T00:56:21.904Z,99779.16
2023-03-21T00:56:57.543Z,99781.03
2023-03-21T00:57:38.620Z,99781.03
2023-03-21T00:58:11.845Z,99777.00
2023-03-21T00:58:46.585Z,99786.63
2023-03-21T00:59:18.743Z,99778.84
2023-03-21T00:59:50.907Z,99778.63
2023-03-21T01:00:25.834Z,99774.06
2023-03-21T01:00:58.017Z,99778.63
2023-03-21T01:01:32.422Z,99778.34
2023-03-21T01:02:07.629Z,99776.72
2023-03-21T01:03:14.148Z,99778.34
2023-03-21T01:04:04.881Z,99774.22
2023-03-21T01:04:37.061Z,99774.47
2023-03-21T01:05:12.086Z,99773.41
2023-03-21T01:06:07.365Z,99771.31
2023-03-21T01:06:40.905Z,99777.13
2023-03-21T01:07:13.037Z,99776.09
2023-03-21T01:07:47.705Z,99774.00
2023-03-21T01:08:26.848Z,99772.13
2023-03-21T01:09:03.208Z,99776.91
2023-03-21T01:09:38.028Z,99770.50
2023-03-21T01:10:11.563Z,99770.75
2023-03-21T01:10:46.256Z,99773.19
2023-03-21T01:11:20.668Z,99771.31
2023-03-21T01:11:56.522Z,99774.00
2023-03-21T01:12:28.813Z,99767.03
2023-03-21T01:13:01.306Z,99769.69
2023-03-21T01:13:44.015Z,99775.03
2023-03-21T01:14:23.855Z,99770.97
2023-03-21T01:14:58.895Z,99767.53
2023-03-21T01:15:32.074Z,99770.19
2023-03-21T01:16:06.143Z,99769.13
2023-03-21T01:16:41.722Z,99771.47
2023-03-21T01:17:14.081Z,99765.00
2023-03-21T01:17:48.788Z,99766.84
2023-03-21T01:18:25.079Z,99763.63
2023-03-21T01:18:59.813Z,99767.09
2023-03-21T01:19:48.734Z,99763.63
2023-03-21T01:20:23.755Z,99762.25
2023-03-21T01:21:00.969Z,99758.53
2023-03-21T01:21:33.697Z,99771.06
2023-03-21T01:22:05.859Z,99762.25
2023-03-21T01:22:40.537Z,99761.19
2023-03-21T01:23:15.018Z,99761.19
2023-03-21T01:23:47.348Z,99753.19
2023-03-21T01:24:22.241Z,99765.50
2023-03-21T01:25:00.621Z,99758.28
2023-03-21T01:25:35.662Z,99758.28
2023-03-21T01:26:11.040Z,99758.03
2023-03-21T01:26:43.277Z,99753.72
2023-03-21T01:27:15.949Z,99759.88
2023-03-21T01:27:51.530Z,99757.22
2023-03-21T01:28:26.637Z,99758.03
2023-03-21T01:29:01.688Z,99756.97
2023-03-21T01:29:33.852Z,99758.84
2023-03-21T01:30:19.155Z,99758.59
2023-03-21T01:30:53.293Z,99760.69
2023-03-21T01:31:28.419Z,99753.72
2023-03-21T01:32:00.604Z,99755.34
2023-03-21T01:32:34.165Z,99739.31
2023-03-21T01:33:09.070Z,99750.00
2023-03-21T01:33:44.090Z,99752.69
2023-03-21T01:34:16.308Z,99749.19
2023-03-21T01:34:48.788Z,99747.34
2023-03-21T01:35:23.970Z,99752.69
2023-03-21T01:36:10.233Z,99750.00
2023-03-21T01:36:47.988Z,99748.88
2023-03-21T01:37:26.647Z,99745.16
2023-03-21T01:37:59.784Z,99755.63
2023-03-21T01:38:32.081Z,99751.06
2023-03-21T01:39:08.737Z,99742.25
2023-03-21T01:39:40.964Z,99742.25
2023-03-21T01:40:17.468Z,99747.59
2023-03-21T01:40:53.231Z,99747.59
2023-03-21T01:41:47.753Z,99744.13
2023-03-21T01:42:44.019Z,99753.09
2023-03-21T01:43:25.848Z,99752.28
2023-03-21T01:43:59.674Z,99753.91
2023-03-21T01:44:56.785Z,99744.53
2023-03-21T01:45:59.949Z,99746.63
2023-03-21T01:47:10.544Z,99752.47
2023-03-21T01:47:53.301Z,99743.03
2023-03-21T01:48:32.071Z,99750.03
2023-03-21T01:49:11.797Z,99752.47
2023-03-21T01:49:48.012Z,99744.44
2023-03-21T01:50:24.421Z,99744.44
2023-03-21T01:51:22.758Z,99744.91
2023-03-21T01:52:12.773Z,99743.03
2023-03-21T01:52:50.606Z,99740.38
2023-03-21T01:53:33.781Z,99736.06
2023-03-21T01:54:11.679Z,99742.22
2023-03-21T01:54:47.811Z,99742.22
2023-03-21T01:55:20.258Z,99744.66
2023-03-21T01:56:03.188Z,99739.34
2023-03-21T01:57:01.901Z,99739.81
2023-03-21T01:57:51.925Z,99739.81
2023-03-21T01:58:32.075Z,99742.72
2023-03-21T01:59:17.558Z,99739.25
2023-03-21T02:00:12.729Z,99733.00
2023-03-21T02:00:52.306Z,99738.69
2023-03-21T02:01:38.427Z,99740.28
2023-03-21T02:02:18.023Z,99734.94
2023-03-21T02:03:15.233Z,99744.03
2023-03-21T02:04:09.306Z,99734.63
2023-03-21T02:04:58.620Z,99733.81
2023-03-21T02:05:41.261Z,99728.47
2023-03-21T02:06:22.056Z,99730.91
2023-03-21T02:07:06.121Z,99730.31
2023-03-21T02:07:46.688Z,99731.41
2023-03-21T02:08:30.514Z,99735.94
2023-03-21T02:09:23.409Z,99730.81
2023-03-21T02:09:56.474Z,99731.88
2023-03-21T02:10:32.231Z,99730.59
2023-03-21T02:11:10.015Z,99730.59
2023-03-21T02:11:47.606Z,99729.78
2023-03-21T02:12:23.727Z,99720.94
2023-03-21T02:13:09.655Z,99719.91
2023-03-21T02:13:45.431Z,99725.72
2023-03-21T02:14:29.410Z,99721.19
2023-03-21T02:15:16.259Z,99725.16
2023-03-21T02:16:18.218Z,99715.75
2023-03-21T02:17:02.057Z,99717.63
2023-03-21T02:17:42.607Z,99721.91
2023-03-21T02:18:27.201Z,99715.75
2023-03-21T02:19:29.584Z,99716.56
2023-03-21T02:20:37.243Z,99713.03
2023-03-21T02:21:43.089Z,99715.34
2023-03-21T02:22:38.172Z,99714.53
2023-03-21T02:23:34.176Z,99720.94
2023-03-21T02:24:30.346Z,99711.00
2023-03-21T02:25:41.543Z,99720.84
2023-03-21T02:27:01.534Z,99715.97
2023-03-21T02:27:44.739Z,99720.53
2023-03-21T02:28:27.987Z,99715.19
2023-03-21T02:29:09.070Z,99713.06
2023-03-21T02:30:31.932Z,99710.09
2023-03-21T02:31:27.256Z,99712.16
2023-03-21T02:32:22.552Z,99714.50
2023-03-21T02:33:34.798Z,99716.28
2023-03-21T02:34:54.151Z,99714.28
2023-03-21T02:35:51.892Z,99710.25
2023-03-21T02:36:38.134Z,99707.81
2023-03-21T02:37:36.570Z,99707.81
2023-03-21T02:38:18.470Z,99708.09
2023-03-21T02:38:59.967Z,99707.28
2023-03-21T02:39:40.435Z,99700.88
2023-03-21T02:40:23.464Z,99710.75
2023-03-21T02:41:17.946Z,99707.00
2023-03-21T02:41:56.463Z,99708.53
2023-03-21T02:43:00.074Z,99704.28
2023-03-21T02:43:43.078Z,99711.84
2023-03-21T02:44:23.919Z,99703.84
2023-03-21T02:45:01.854Z,99702.94
2023-03-21T02:45:40.362Z,99708.00
2023-03-21T02:46:17.689Z,99703.25
2023-03-21T02:47:05.477Z,99709.41
2023-03-21T02:47:43.883Z,99706.97
2023-03-21T02:48:29.338Z,99711.50
2023-03-21T02:49:12.808Z,99708.28
2023-03-21T02:49:49.726Z,99703.97
2023-03-21T02:50:27.619Z,99706.66
2023-03-21T02:51:05.117Z,99704.78
2023-03-21T02:51:40.716Z,99701.91
2023-03-21T02:52:35.435Z,99700.81
2023-03-21T02:53:16.164Z,99702.13
2023-03-21T02:54:13.042Z,99699.44
2023-03-21T02:54:49.053Z,99693.53
2023-03-21T02:55:29.735Z,99696.78
2023-03-21T02:56:10.822Z,99701.91
2023-03-21T02:56:50.871Z,99696.78
2023-03-21T02:57:33.790Z,99697.13
2023-03-21T02:58:13.735Z,99697.13
2023-03-21T02:58:56.920Z,99701.63
2023-03-21T02:59:30.552Z,99700.59
2023-03-21T03:00:16.731Z,99702.22
2023-03-21T03:00:50.886Z,99704.88
2023-03-21T03:01:34.419Z,99709.41
2023-03-21T03:02:10.167Z,99700.38
2023-03-21T03:02:42.354Z,99707.31
2023-03-21T03:03:27.979Z,99706.25
2023-03-21T03:04:06.983Z,99705.69
2023-03-21T03:04:39.229Z,99702.44
2023-03-21T03:05:21.203Z,99699.56
2023-03-21T03:06:01.469Z,99710.47
2023-03-21T03:06:47.342Z,99706.41
2023-03-21T03:07:36.978Z,99706.41
2023-03-21T03:08:41.233Z,99714.88
2023-03-21T03:09:31.772Z,99704.69
2023-03-21T03:10:22.652Z,99705.50
2023-03-21T03:11:10.574Z,99705.72
2023-03-21T03:11:47.458Z,99704.69
2023-03-21T03:12:30.082Z,99708.16
2023-03-21T03:13:16.442Z,99703.31
2023-03-21T03:14:21.043Z,99700.66
2023-03-21T03:15:08.771Z,99701.38
2023-03-21T03:15:54.076Z,99702.16
2023-03-21T03:16:37.002Z,99710.16
2023-03-21T03:17:22.148Z,99704.81
2023-03-21T03:18:03.483Z,99710.16
2023-03-21T03:18:48.013Z,99701.38
2023-03-21T03:19:31.215Z,99702.16
2023-03-21T03:20:22.028Z,99699.47
2023-03-21T03:21:07.239Z,99703.22
2023-03-21T03:21:44.858Z,99709.13
2023-03-21T03:22:26.961Z,99707.25
2023-03-21T03:23:16.028Z,99710.75
2023-03-21T03:23:55.306Z,99707.25
2023-03-21T03:24:31.103Z,99710.63
2023-03-21T03:25:19.757Z,99713.31
2023-03-21T03:26:06.114Z,99711.69
2023-03-21T03:26:41.477Z,99708.78
2023-03-21T03:27:17.862Z,99703.22
2023-03-21T03:27:55.736Z,99712.81
2023-03-21T03:28:33.662Z,99711.22
2023-03-21T03:29:12.388Z,99707.75
2023-03-21T03:29:49.127Z,99710.41
2023-03-21T03:30:39.285Z,99713.31
2023-03-21T03:31:22.259Z,99707.97
2023-03-21T03:32:02.501Z,99709.00
2023-03-21T03:32:44.929Z,99710.09
2023-03-21T03:33:23.602Z,99702.31
2023-03-21T03:33:58.866Z,99710.09
2023-03-21T03:34:39.667Z,99708.19
2023-03-21T03:35:20.296Z,99704.16
2023-03-21T03:36:04.927Z,99708.44
2023-03-21T03:36:44.690Z,99707.63
2023-03-21T03:37:26.503Z,99708.69
2023-03-21T03:38:06.319Z,99711.13
2023-03-21T03:41:23.857Z,99714.06
2023-03-21T03:42:21.831Z,99711.38
2023-03-21T03:43:37.084Z,99716.13
2023-03-21T03:44:09.343Z,99714.50
2023-03-21T03:44:45.589Z,99705.47
2023-03-21T03:45:22.968Z,99705.03
2023-03-21T03:46:00.360Z,99714.63
2023-03-21T03:46:38.899Z,99706.63
2023-03-21T03:47:29.880Z,99711.72
2023-03-21T03:48:09.067Z,99709.28
2023-03-21T03:48:52.567Z,99709.28
2023-03-21T03:49:28.854Z,99709.28
2023-03-21T03:50:04.933Z,99712.53
2023-03-21T03:50:47.387Z,99707.19
2023-03-21T03:51:26.280Z,99701.88
2023-03-21T03:52:26.218Z,99710.09
2023-03-21T03:53:19.212Z,99705.81
2023-03-21T03:53:57.647Z,99703.94
2023-03-21T03:54:37.251Z,99701.06
2023-03-21T03:55:17.762Z,99701.88
2023-03-21T03:55:55.032Z,99703.50
2023-03-21T03:56:31.887Z,99692.56
2023-03-21T03:57:07.304Z,99703.00
2023-03-21T03:57:40.981Z,99700.34
2023-03-21T03:58:22.889Z,99700.13
2023-03-21T03:59:00.308Z,99696.63
2023-03-21T03:59:50.316Z,99694.78
2023-03-21T04:00:36.104Z,99694.78
2023-03-21T04:01:08.614Z,99691.88
2023-03-21T04:01:41.613Z,99695.13
2023-03-21T04:02:17.547Z,99691.16
2023-03-21T04:02:49.733Z,99690.94
2023-03-21T04:03:26.417Z,99690.69
2023-03-21T04:04:12.620Z,99696.59
2023-03-21T04:04:47.170Z,99690.44
2023-03-21T04:05:21.510Z,99697.16
2023-03-21T04:05:56.630Z,99689.16
2023-03-21T04:06:29.134Z,99687.06
2023-03-21T04:07:03.570Z,99693.22
2023-03-21T04:07:38.436Z,99693.78
2023-03-21T04:08:11.109Z,99691.13
2023-03-21T04:08:47.717Z,99690.06
2023-03-21T04:09:31.500Z,99687.38
2023-03-21T04:10:13.273Z,99692.16
2023-03-21T04:10:49.693Z,99691.94
2023-03-21T04:11:22.387Z,99692.72
2023-03-21T04:12:00.890Z,99685.53
2023-03-21T04:12:35.660Z,99685.53
2023-03-21T04:13:43.443Z,99689.16
2023-03-21T04:14:20.769Z,99687.06
2023-03-21T04:14:53.342Z,99684.97
2023-03-21T04:15:27.175Z,99685.78
2023-03-21T04:16:08.941Z,99685.78
2023-03-21T04:16:41.233Z,99690.06
2023-03-21T04:17:13.372Z,99690.88
2023-03-21T04:17:48.370Z,99686.34
2023-03-21T04:18:23.142Z,99690.88
2023-03-21T04:18:55.592Z,99688.19
2023-03-21T04:19:31.398Z,99684.72
2023-03-21T04:20:12.025Z,99688.19
2023-03-21T04:20:45.415Z,99691.94
2023-03-21T04:21:21.722Z,99688.19
2023-03-21T04:21:54.004Z,99686.34
2023-03-21T04:22:27.184Z,99689.00
2023-03-21T04:23:02.111Z,99691.44
2023-03-21T04:23:36.018Z,99691.44
2023-03-21T04:24:08.779Z,99694.13
2023-03-21T04:24:44.911Z,99694.13
2023-03-21T04:25:30.638Z,99694.13
2023-03-21T04:26:09.567Z,99693.53
2023-03-21T04:26:46.570Z,99700.72
2023-03-21T04:27:48.598Z,99694.03
2023-03-21T04:28:39.926Z,99691.03
2023-03-21T04:29:33.079Z,99695.31
2023-03-21T04:30:07.530Z,99693.22
2023-03-21T04:31:01.434Z,99695.06
2023-03-21T04:31:41.724Z,99691.59
2023-03-21T04:32:17.846Z,99695.66
2023-03-21T04:33:01.181Z,99695.66
2023-03-21T04:33:39.021Z,99694.84
2023-03-21T04:34:12.771Z,99700.97
2023-03-21T04:34:50.263Z,99699.13
2023-03-21T04:35:26.936Z,99701.78
2023-03-21T04:36:00.131Z,99694.84
2023-03-21T04:36:39.415Z,99697.28
2023-03-21T04:37:15.994Z,99705.50
2023-03-21T04:37:48.217Z,99704.47
2023-03-21T04:38:20.923Z,99701.78
2023-03-21T04:38:57.346Z,99701.78
2023-03-21T04:39:29.713Z,99701.22
2023-03-21T04:40:06.269Z,99700.16
2023-03-21T04:40:41.057Z,99697.72
2023-03-21T04:41:13.374Z,99695.06
2023-03-21T04:41:46.738Z,99703.88
2023-03-21T04:42:21.756Z,99698.78
2023-03-21T04:42:56.910Z,99702.25
2023-03-21T04:43:29.547Z,99701.44
2023-03-21T04:44:04.731Z,99701.22
2023-03-21T04:44:37.377Z,99703.88
2023-03-21T04:45:10.915Z,99709.81
2023-03-21T04:45:47.007Z,99705.28
2023-03-21T04:46:19.225Z,99704.47
2023-03-21T04:46:55.027Z,99708.72
2023-03-21T04:47:28.450Z,99703.41
2023-03-21T04:48:04.491Z,99707.94
2023-03-21T04:48:37.990Z,99706.06
2023-03-21T04:49:10.568Z,99707.94
2023-03-21T04:49:45.959Z,99710.34
2023-03-21T04:50:18.180Z,99707.69
2023-03-21T04:50:51.105Z,99714.88
2023-03-21T04:51:25.915Z,99712.22
2023-03-21T04:51:58.098Z,99707.13
2023-03-21T04:52:30.234Z,99704.47
2023-03-21T04:53:02.371Z,99706.88
2023-03-21T04:53:38.520Z,99706.06
2023-03-21T04:54:46.971Z,99707.13
2023-03-21T04:55:21.807Z,99708.16
2023-03-21T04:55:55.675Z,99708.97
2023-03-21T04:56:32.475Z,99707.94
2023-03-21T04:57:08.154Z,99710.63
2023-03-21T04:57:40.452Z,99711.66
2023-03-21T04:58:18.100Z,99708.72
2023-03-21T04:58:51.440Z,99707.13
2023-03-21T04:59:24.735Z,99712.47
2023-03-21T05:00:00.531Z,99707.69
2023-03-21T05:00:37.545Z,99708.72
2023-03-21T05:01:10.908Z,99711.41
2023-03-21T05:01:46.462Z,99716.50
2023-03-21T05:04:09.847Z,99707.59
2023-03-21T05:04:42.269Z,99706.53
2023-03-21T05:05:14.539Z,99707.94
2023-03-21T05:05:49.616Z,99706.88
2023-03-21T05:06:24.049Z,99705.84
2023-03-21T05:06:56.323Z,99713.59
2023-03-21T05:07:32.842Z,99705.34
2023-03-21T05:08:06.245Z,99709.66
2023-03-21T05:08:38.558Z,99710.47
2023-03-21T05:09:13.895Z,99700.59
2023-03-21T05:09:46.400Z,99703.03
2023-03-21T05:10:19.188Z,99715.06
2023-03-21T05:10:54.001Z,99707.06
2023-03-21T05:11:27.294Z,99699.06
2023-03-21T05:12:02.136Z,99711.91
2023-03-21T05:12:35.809Z,99704.72
2023-03-21T05:13:08.012Z,99705.53
2023-03-21T05:13:45.469Z,99710.66
2023-03-21T05:14:19.739Z,99707.16
2023-03-21T05:14:52.128Z,99708.22
2023-03-21T05:15:27.079Z,99713.31
2023-03-21T05:15:59.326Z,99707.16
2023-03-21T05:16:31.879Z,99708.78
2023-03-21T05:17:07.265Z,99707.97
2023-03-21T05:17:42.826Z,99709.03
2023-03-21T05:18:15.766Z,99704.72
2023-03-21T05:19:07.413Z,99711.09
2023-03-21T05:19:44.918Z,99707.06
2023-03-21T05:20:17.868Z,99708.44
2023-03-21T05:20:54.634Z,99714.38
2023-03-21T05:21:29.677Z,99714.13
2023-03-21T05:22:07.398Z,99713.31
2023-03-21T05:22:40.689Z,99711.47
2023-03-21T05:23:18.661Z,99720.28
2023-03-21T05:23:54.719Z,99718.16
2023-03-21T05:24:26.956Z,99718.16
2023-03-21T05:25:04.124Z,99716.31
2023-03-21T05:25:47.492Z,99714.13
2023-03-21T05:26:24.372Z,99717.63
2023-03-21T05:27:14.245Z,99722.13
2023-03-21T05:27:54.312Z,99720.28
2023-03-21T05:28:36.889Z,99722.03
2023-03-21T05:29:12.278Z,99719.13
2023-03-21T05:29:44.883Z,99720.28
2023-03-21T05:30:21.313Z,99718.97
2023-03-21T05:30:55.766Z,99725.13
2023-03-21T05:31:30.776Z,99728.94
2023-03-21T05:32:14.384Z,99719.56
2023-03-21T05:32:46.794Z,99722.25
2023-03-21T05:33:21.945Z,99731.63
2023-03-21T05:33:54.429Z,99727.91
2023-03-21T05:34:27.209Z,99731.13
2023-03-21T05:35:02.640Z,99722.09
2023-03-21T05:35:35.008Z,99732.56
2023-03-21T05:36:11.480Z,99735.22
2023-03-21T05:36:46.898Z,99728.84
2023-03-21T05:37:19.069Z,99730.22
2023-03-21T05:37:54.349Z,99729.16
2023-03-21T05:38:31.242Z,99726.25
2023-03-21T05:39:04.216Z,99720.91
2023-03-21T05:39:38.764Z,99724.38
2023-03-21T05:40:22.335Z,99719.84
2023-03-21T05:40:54.711Z,99726.81
2023-03-21T05:41:26.900Z,99724.69
2023-03-21T05:42:01.756Z,99724.47
2023-03-21T05:42:34.057Z,99719.72
2023-03-21T05:43:15.048Z,99728.53
2023-03-21T05:43:50.552Z,99719.47
2023-03-21T05:44:25.506Z,99723.75
2023-03-21T05:45:00.862Z,99730.72
2023-03-21T05:45:35.904Z,99730.50
2023-03-21T05:46:09.914Z,99730.00
2023-03-21T05:46:46.777Z,99734.31
2023-03-21T05:47:19.472Z,99728.69
2023-03-21T05:47:52.929Z,99735.66
2023-03-21T05:48:31.309Z,99733.81
2023-03-21T05:49:24.577Z,99732.19
2023-03-21T05:50:03.532Z,99731.94
2023-03-21T05:50:38.858Z,99728.22
2023-03-21T05:51:17.781Z,99734.94
2023-03-21T05:51:54.047Z,99738.19
2023-03-21T05:52:26.859Z,99730.72
2023-03-21T05:52:59.089Z,99724.34
2023-03-21T05:53:34.071Z,99725.97
2023-03-21T05:54:06.788Z,99727.03
2023-03-21T05:54:42.052Z,99734.00
2023-03-21T05:55:14.600Z,99727.56
2023-03-21T05:55:47.756Z,99731.88
2023-03-21T05:56:36.605Z,99732.91
2023-03-21T05:57:11.538Z,99730.00
2023-03-21T05:58:18.456Z,99728.88
2023-03-21T05:58:54.706Z,99731.06
2023-03-21T05:59:31.012Z,99724.44
2023-03-21T06:00:06.489Z,99721.50
2023-03-21T06:00:47.636Z,99728.47
2023-03-21T06:01:31.296Z,99725.00
2023-03-21T06:02:13.081Z,99722.91
2023-03-21T06:02:45.877Z,99725.34
2023-03-21T06:03:53.033Z,99723.72
2023-03-21T06:04:29.688Z,99725.06
2023-03-21T06:05:01.994Z,99728.06
2023-03-21T06:05:37.127Z,99727.84
2023-03-21T06:06:16.263Z,99725.16
2023-03-21T06:07:02.717Z,99725.16
2023-03-21T06:07:35.657Z,99720.41
2023-03-21T06:08:08.027Z,99727.91
2023-03-21T06:08:43.002Z,99733.03
2023-03-21T06:09:15.204Z,99721.03
2023-03-21T06:09:54.722Z,99728.00
2023-03-21T06:10:26.954Z,99726.94
2023-03-21T06:10:59.034Z,99725.66
2023-03-21T06:11:36.154Z,99725.41
2023-03-21T06:12:34.574Z,99725.06
2023-03-21T06:13:16.589Z,99729.13
2023-03-21T06:13:48.769Z,99721.66
2023-03-21T06:14:24.387Z,99722.25
2023-03-21T06:15:21.611Z,99725.72
2023-03-21T06:16:03.539Z,99726.53
2023-03-21T06:16:38.439Z,99720.94
2023-03-21T06:17:13.177Z,99728.47
2023-03-21T06:17:53.438Z,99730.34
2023-03-21T06:18:26.380Z,99724.75
2023-03-21T06:19:13.296Z,99725.81
2023-03-21T06:20:11.673Z,99720.69
2023-03-21T06:20:54.531Z,99723.13
2023-03-21T06:21:26.985Z,99719.16
2023-03-21T06:21:59.218Z,99713.34
2023-03-21T06:22:34.221Z,99721.91
2023-03-21T06:23:07.760Z,99720.03
2023-03-21T06:23:40.025Z,99719.53
2023-03-21T06:24:14.876Z,99725.47
2023-03-21T06:24:48.401Z,99720.94
2023-03-21T06:25:23.402Z,99718.00
2023-03-21T06:25:58.246Z,99720.44
2023-03-21T06:26:31.873Z,99719.38
2023-03-21T06:27:04.474Z,99719.13
2023-03-21T06:27:53.743Z,99721.00
2023-03-21T06:28:26.924Z,99719.94
2023-03-21T06:28:59.111Z,99714.34
2023-03-21T06:29:33.996Z,99721.06
2023-03-21T06:30:08.795Z,99719.19
2023-03-21T06:30:53.492Z,99722.69
2023-03-21T06:31:29.559Z,99717.34
2023-03-21T06:32:10.709Z,99716.06
2023-03-21T06:32:43.140Z,99723.00
2023-03-21T06:33:19.278Z,99718.22
2023-03-21T06:33:54.443Z,99721.47
2023-03-21T06:34:26.862Z,99711.56
2023-03-21T06:34:58.969Z,99719.34
2023-03-21T06:35:33.955Z,99714.81
2023-03-21T06:36:07.078Z,99713.75
2023-03-21T06:36:39.240Z,99716.44
2023-03-21T06:37:14.253Z,99719.09
2023-03-21T06:37:49.459Z,99717.25
2023-03-21T06:38:26.210Z,99713.50
2023-03-21T06:38:58.877Z,99710.59
2023-03-21T06:39:33.973Z,99719.97
2023-03-21T06:40:09.788Z,99714.38
2023-03-21T06:40:42.013Z,99713.56
2023-03-21T06:41:18.456Z,99714.13
2023-03-21T06:42:00.429Z,99714.94
2023-03-21T06:42:32.836Z,99710.16
2023-03-21T06:43:14.544Z,99710.97
2023-03-21T06:43:46.837Z,99710.97
2023-03-21T06:44:22.181Z,99709.66
2023-03-21T06:45:02.341Z,99711.25
2023-03-21T06:45:34.826Z,99712.66
2023-03-21T06:46:12.192Z,99715.06
2023-03-21T06:46:44.811Z,99711.34
2023-03-21T06:47:18.422Z,99719.34
2023-03-21T06:47:54.578Z,99718.31
2023-03-21T06:48:37.690Z,99721.22
2023-03-21T06:49:12.620Z,99709.72
2023-03-21T06:49:44.796Z,99719.34
2023-03-21T06:50:19.141Z,99719.94
2023-03-21T06:50:55.321Z,99723.41
2023-03-21T06:51:29.164Z,99722.34
2023-03-21T06:52:13.644Z,99721.56
2023-03-21T06:52:46.654Z,99728.50
2023-03-21T06:53:21.305Z,99723.97
2023-03-21T06:54:18.046Z,99723.66
2023-03-21T06:54:55.043Z,99719.94
2023-03-21T06:55:30.675Z,99723.16
2023-03-21T06:56:05.539Z,99714.88
2023-03-21T06:56:38.510Z,99721.88
2023-03-21T06:57:13.698Z,99718.91
2023-03-21T06:57:46.492Z,99716.00
2023-03-21T06:58:19.678Z,99718.44
2023-03-21T06:58:54.623Z,99711.78
2023-03-21T06:59:49.253Z,99714.69
2023-03-21T07:00:29.445Z,99711.78
2023-03-21T07:01:03.280Z,99722.25
2023-03-21T07:01:43.262Z,99713.94
2023-03-21T07:02:16.071Z,99718.50
2023-03-21T07:02:54.504Z,99717.44
2023-03-21T07:03:32.999Z,99717.19
2023-03-21T07:04:06.457Z,99716.94
2023-03-21T07:04:41.257Z,99721.78
2023-03-21T07:05:18.995Z,99722.59
2023-03-21T07:05:53.813Z,99722.09
2023-03-21T07:06:27.406Z,99721.84
2023-03-21T07:07:02.890Z,99718.13
2023-03-21T07:07:35.068Z,99716.00
2023-03-21T07:08:08.294Z,99722.97
2023-03-21T07:08:43.847Z,99715.75
2023-03-21T07:09:17.992Z,99713.63
2023-03-21T07:09:50.544Z,99714.19
2023-03-21T07:10:25.354Z,99713.13
2023-03-21T07:11:07.721Z,99715.53
2023-03-21T07:11:42.433Z,99711.56
2023-03-21T07:12:14.566Z,99712.38
2023-03-21T07:13:04.741Z,99709.72
2023-03-21T07:13:50.454Z,99715.38
2023-03-21T07:14:24.026Z,99711.63
2023-03-21T07:14:58.777Z,99705.78
2023-03-21T07:15:31.545Z,99712.47
2023-03-21T07:16:04.013Z,99705.00
2023-03-21T07:16:41.177Z,99702.91
2023-03-21T07:17:16.094Z,99707.19
2023-03-21T07:17:48.249Z,99696.47
2023-03-21T07:18:23.211Z,99704.25
2023-03-21T07:18:56.291Z,99708.56
2023-03-21T07:19:28.519Z,99703.75
2023-03-21T07:20:05.292Z,99698.69
2023-03-21T07:20:38.206Z,99699.50
2023-03-21T07:21:13.427Z,99699.81
2023-03-21T07:21:45.873Z,99701.41
2023-03-21T07:22:19.658Z,99699.84
2023-03-21T07:22:54.384Z,99699.59
2023-03-21T07:23:28.278Z,99695.63
2023-03-21T07:24:00.499Z,99700.72
2023-03-21T07:24:35.448Z,99705.53
2023-03-21T07:25:09.072Z,99697.25
2023-03-21T07:25:44.210Z,99697.84
2023-03-21T07:26:19.305Z,99700.25
2023-03-21T07:26:51.557Z,99698.13
2023-03-21T07:27:23.670Z,99704.84
2023-03-21T07:27:58.624Z,99701.91
2023-03-21T07:28:31.505Z,99697.13
2023-03-21T07:29:06.584Z,99699.53
2023-03-21T07:29:38.872Z,99702.19
2023-03-21T07:30:13.017Z,99700.34
2023-03-21T07:30:48.770Z,99699.28
2023-03-21T07:31:21.044Z,99696.59
2023-03-21T07:31:54.366Z,99695.53
2023-03-21T07:32:35.564Z,99696.09
2023-03-21T07:33:09.656Z,99696.09
2023-03-21T07:33:43.712Z,99696.66
2023-03-21T07:34:19.044Z,99695.59
2023-03-21T07:34:51.384Z,99697.75
2023-03-21T07:35:23.634Z,99694.03
2023-03-21T07:35:58.738Z,99700.50
2023-03-21T07:36:30.852Z,99700.22
2023-03-21T07:37:07.141Z,99700.78
2023-03-21T07:37:39.926Z,99699.47
2023-03-21T07:38:14.777Z,99702.94